Time;durP1;ratioP1;P1;durP2;ratioP2;P2;SDS_P1;SDS_P2;PMS_P1;PMS_P2;Temp;Humidity;BMP_temperature;BMP_pressure;BME280_temperature;BME280_humidity;BME280_pressure;Samples;Min_cycle;Max_cycle;Signal;HPM_P1;HPM_P2
2022/12/27 00:01:30;;;;;;;12.50;10.00;;;;;;;8.16;95.94;100063.05;108877;1257;37032;-75
2022/12/27 00:04:07;;;;;;;13.60;10.10;;;;;;;8.15;96.08;100059.80;108890;1276;37004;-74
2022/12/27 00:06:41;;;;;;;14.10;9.50;;;;;;;8.15;96.17;100062.05;108691;1270;37288;-74
2022/12/27 00:09:16;;;;;;;11.90;9.80;;;;;;;8.15;96.20;100063.07;108883;1267;37020;-75
2022/12/27 00:11:50;;;;;;;10.90;9.30;;;;;;;8.17;96.33;100057.10;108888;1275;37514;-73
2022/12/27 00:14:24;;;;;;;12.90;10.00;;;;;;;8.20;96.14;100058.25;108859;1266;37199;-72
2022/12/27 00:17:01;;;;;;;12.30;10.00;;;;;;;8.20;96.14;100056.67;108780;1258;37247;-76
2022/12/27 00:19:35;;;;;;;12.30;10.30;;;;;;;8.20;96.05;100059.45;108862;1254;37215;-75
2022/12/27 00:22:10;;;;;;;14.50;11.40;;;;;;;8.21;96.06;100056.63;108707;1260;36084;-75
2022/12/27 00:24:45;;;;;;;11.30;10.10;;;;;;;8.20;96.00;100049.36;108864;1267;37014;-74
2022/12/27 00:27:19;;;;;;;11.90;10.20;;;;;;;8.22;96.16;100046.68;108864;1273;36943;-76
2022/12/27 00:29:55;;;;;;;13.70;11.00;;;;;;;8.25;96.26;100051.81;108684;1276;37358;-76
2022/12/27 00:32:29;;;;;;;15.40;12.00;;;;;;;8.25;96.18;100051.45;108847;1257;37044;-74
2022/12/27 00:35:04;;;;;;;13.40;11.20;;;;;;;8.24;96.09;100052.86;108861;1271;36641;-74
2022/12/27 00:37:39;;;;;;;15.40;11.20;;;;;;;8.25;96.01;100052.84;108803;1275;37103;-74
2022/12/27 00:40:18;;;;;;;12.50;11.10;;;;;;;8.27;96.00;100046.52;108891;1275;37102;-76
2022/12/27 00:42:55;;;;;;;13.70;12.20;;;;;;;8.29;96.06;100047.52;108608;1269;38344;-72
2022/12/27 00:45:29;;;;;;;12.90;10.70;;;;;;;8.30;96.00;100052.71;108647;1267;38491;-74
2022/12/27 00:48:04;;;;;;;12.90;10.40;;;;;;;8.28;95.92;100054.99;108598;1277;37005;-73
2022/12/27 00:50:39;;;;;;;10.70;9.60;;;;;;;8.31;96.00;100063.27;108536;1269;37204;-73
2022/12/27 00:53:16;;;;;;;12.40;10.30;;;;;;;8.33;96.21;100070.66;108535;1265;37070;-75
2022/12/27 00:55:50;;;;;;;13.10;10.20;;;;;;;8.35;95.96;100062.43;108397;1254;172609;-74
2022/12/27 00:58:24;;;;;;;11.40;9.40;;;;;;;8.36;95.97;100067.27;108519;1261;37219;-72
2022/12/27 01:01:05;;;;;;;10.50;9.10;;;;;;;8.35;95.93;100066.44;108379;1277;174769;-72
2022/12/27 01:03:39;;;;;;;11.60;9.00;;;;;;;8.36;95.93;100054.75;108501;1269;37109;-73
2022/12/27 01:06:15;;;;;;;10.10;9.00;;;;;;;8.38;95.92;100061.30;108493;1261;36416;-74
2022/12/27 01:08:51;;;;;;;12.50;9.50;;;;;;;8.40;96.01;100067.16;108519;1277;36253;-74
2022/12/27 01:11:27;;;;;;;10.00;8.90;;;;;;;8.40;95.94;100058.80;108548;1270;37354;-74
2022/12/27 01:14:02;;;;;;;11.10;8.20;;;;;;;8.43;95.86;100057.33;108495;1277;36992;-74
2022/12/27 01:16:39;;;;;;;9.70;8.60;;;;;;;8.42;95.73;100054.58;108587;1269;37036;-75
2022/12/27 01:19:14;;;;;;;10.60;8.40;;;;;;;8.42;95.71;100055.60;108589;1266;36566;-74
2022/12/27 01:21:48;;;;;;;12.20;8.80;;;;;;;8.42;95.57;100052.83;108550;1260;37364;-75
2022/12/27 01:24:23;;;;;;;10.70;8.40;;;;;;;8.41;95.57;100051.64;108522;1259;37586;-72
2022/12/27 01:26:59;;;;;;;10.00;8.40;;;;;;;8.42;95.65;100057.70;108572;1259;38290;-72
2022/12/27 01:29:34;;;;;;;8.10;7.10;;;;;;;8.42;95.55;100053.88;108497;1277;37028;-74
2022/12/27 01:32:09;;;;;;;10.10;8.20;;;;;;;8.43;95.62;100051.23;108319;1264;36991;-75
2022/12/27 01:34:46;;;;;;;9.50;8.30;;;;;;;8.45;95.63;100049.42;108499;1277;36079;-77
2022/12/27 01:37:21;;;;;;;12.50;8.00;;;;;;;8.43;95.47;100045.13;108496;1267;37348;-75
2022/12/27 01:39:55;;;;;;;10.80;7.30;;;;;;;8.43;95.59;100050.02;108480;1273;37561;-75
2022/12/27 01:45:22;;;;;;;10.40;8.30;;;;;;;8.45;95.55;100054.29;108597;1276;37195;-74
2022/12/27 01:47:59;;;;;;;9.60;8.10;;;;;;;8.45;95.44;100058.97;108648;1257;186275;-75
2022/12/27 01:50:36;;;;;;;11.50;8.50;;;;;;;8.44;95.42;100062.33;108724;1255;37094;-75
2022/12/27 01:53:14;;;;;;;8.90;7.40;;;;;;;8.43;95.38;100054.71;108745;1275;37168;-71
2022/12/27 01:55:50;;;;;;;7.80;6.80;;;;;;;8.43;95.34;100054.90;108542;1264;37214;-73
2022/12/27 01:58:31;;;;;;;10.30;7.30;;;;;;;8.42;95.23;100051.62;108750;1276;37488;-73
2022/12/27 02:01:08;;;;;;;7.60;6.40;;;;;;;8.43;95.40;100051.95;108653;1273;37705;-75
2022/12/27 02:03:45;;;;;;;10.80;6.90;;;;;;;8.42;95.31;100049.88;108737;1256;36094;-75
2022/12/27 02:06:19;;;;;;;8.90;6.60;;;;;;;8.41;95.28;100052.86;108829;1271;36408;-74
2022/12/27 02:09:01;;;;;;;6.40;5.80;;;;;;;8.43;95.35;100048.13;108713;1275;37099;-73
2022/12/27 02:11:52;;;;;;;7.60;6.80;;;;;;;8.45;95.20;100047.86;108740;1264;37164;-75
2022/12/27 02:14:30;;;;;;;11.80;7.10;;;;;;;8.46;95.28;100045.73;108706;1257;37434;-74
2022/12/27 02:17:07;;;;;;;7.20;5.80;;;;;;;8.44;95.09;100046.34;108061;1275;906021;-75
2022/12/27 02:19:47;;;;;;;6.50;5.60;;;;;;;8.43;95.04;100045.84;108550;1259;38046;-75
2022/12/27 02:26:44;;;;;;;7.80;5.60;;;;;;;8.42;94.84;100049.54;108756;1258;38269;-74
2022/12/27 02:29:53;;;;;;;6.80;5.80;;;;;;;8.42;95.11;100046.41;108549;1276;38647;-73
2022/12/27 02:32:30;;;;;;;5.90;5.30;;;;;;;8.42;95.07;100045.88;108742;1264;37131;-75
2022/12/27 02:35:12;;;;;;;6.20;5.00;;;;;;;8.41;94.80;100044.88;108735;1276;37078;-74
2022/12/27 02:37:49;;;;;;;6.10;5.40;;;;;;;8.41;94.87;100050.09;108744;1276;37100;-74
2022/12/27 02:55:32;;;;;;;8.00;6.00;;;;;;;8.33;94.17;100069.63;108722;1275;37613;-75
2022/12/27 02:58:21;;;;;;;6.30;5.70;;;;;;;8.29;94.09;100069.55;108721;1256;37011;-75
2022/12/27 03:04:04;;;;;;;6.30;5.50;;;;;;;8.19;93.94;100078.07;108744;1275;37059;-75
2022/12/27 03:06:55;;;;;;;7.60;5.30;;;;;;;8.17;94.03;100081.08;108739;1275;37156;-74
2022/12/27 03:15:58;;;;;;;3.00;2.60;;;;;;;7.78;91.28;100137.55;108710;1264;37110;-76
2022/12/27 03:19:10;;;;;;;3.60;2.60;;;;;;;7.63;91.27;100141.48;108726;1264;37460;-75
2022/12/27 03:27:33;;;;;;;3.70;1.50;;;;;;;6.93;87.18;100194.77;108726;1256;36952;-73
2022/12/27 03:33:13;;;;;;;3.00;1.20;;;;;;;6.38;87.38;100208.96;108741;1267;37611;-73
2022/12/27 03:38:45;;;;;;;2.30;1.20;;;;;;;6.03;87.60;100212.88;108744;1264;35979;-78
2022/12/27 03:44:25;;;;;;;3.30;1.20;;;;;;;5.78;88.20;100227.92;108554;1274;37232;-75
2022/12/27 03:47:00;;;;;;;4.90;1.50;;;;;;;5.71;88.47;100231.52;108767;1275;37061;-75
2022/12/27 03:49:36;;;;;;;5.20;1.60;;;;;;;5.66;88.44;100236.98;108744;1269;37195;-75
2022/12/27 03:52:13;;;;;;;3.20;1.30;;;;;;;5.62;88.14;100242.25;108726;1272;36960;-75
2022/12/27 03:54:48;;;;;;;4.20;1.30;;;;;;;5.54;88.16;100247.62;108728;1256;37411;-74
2022/12/27 03:57:24;;;;;;;5.80;1.00;;;;;;;5.42;88.30;100250.42;108739;1252;37126;-73
2022/12/27 03:59:58;;;;;;;3.90;1.10;;;;;;;5.36;88.55;100266.80;108716;1264;36474;-74
2022/12/27 04:02:32;;;;;;;3.60;1.10;;;;;;;5.30;88.15;100278.50;108742;1269;36963;-73
2022/12/27 04:05:07;;;;;;;4.90;1.60;;;;;;;5.25;88.48;100283.45;108714;1264;37073;-72
2022/12/27 04:36:19;;;;;;;5.20;1.40;;;;;;;4.64;88.83;100316.91;108758;1273;36962;-76
2022/12/27 04:38:53;;;;;;;7.40;1.90;;;;;;;4.60;88.84;100322.33;108742;1275;37153;-76
2022/12/27 04:55:52;;;;;;;7.20;1.30;;;;;;;4.60;89.32;100351.19;108734;1264;36113;-75
2022/12/27 04:58:27;;;;;;;8.60;2.10;;;;;;;4.57;89.17;100357.79;108713;1253;38312;-74
2022/12/27 05:03:58;;;;;;;6.40;2.10;;;;;;;4.47;89.14;100364.83;108517;1259;174902;-72
2022/12/27 05:06:33;;;;;;;7.70;1.90;;;;;;;4.45;89.24;100371.77;108740;1275;37041;-73
2022/12/27 05:14:47;;;;;;;7.30;1.80;;;;;;;4.39;89.67;100380.98;108779;1253;36299;-75
2022/12/27 05:17:21;;;;;;;6.00;1.60;;;;;;;4.33;89.70;100386.42;108774;1264;37026;-74
2022/12/27 05:19:55;;;;;;;4.70;1.80;;;;;;;4.24;89.11;100392.07;108742;1254;36490;-72
2022/12/27 05:25:36;;;;;;;4.30;1.00;;;;;;;4.08;89.81;100399.15;108745;1275;37522;-74
2022/12/27 05:28:12;;;;;;;6.10;1.80;;;;;;;4.01;89.79;100406.83;108738;1253;37030;-73
2022/12/27 05:30:48;;;;;;;7.00;1.60;;;;;;;3.93;89.78;100412.08;108576;1275;38304;-74
2022/12/27 05:33:23;;;;;;;7.40;1.70;;;;;;;3.87;89.96;100411.45;108557;1271;37438;-72
2022/12/27 05:35:59;;;;;;;8.10;2.10;;;;;;;3.80;89.81;100415.84;108720;1253;37723;-73
2022/12/27 05:38:33;;;;;;;4.70;2.00;;;;;;;3.74;89.95;100414.86;108758;1267;37056;-74
2022/12/27 05:41:07;;;;;;;6.40;2.40;;;;;;;3.68;89.85;100422.67;108735;1275;37348;-74
2022/12/27 05:43:41;;;;;;;9.00;3.00;;;;;;;3.59;89.56;100431.04;108609;1256;175024;-73
2022/12/27 05:46:17;;;;;;;11.40;2.40;;;;;;;3.51;89.72;100441.28;108614;1275;36441;-74
2022/12/27 05:48:51;;;;;;;8.80;2.70;;;;;;;3.47;90.08;100446.65;108563;1258;37081;-74
2022/12/27 05:51:25;;;;;;;10.10;2.80;;;;;;;3.44;90.37;100450.30;108744;1267;36181;-75
2022/12/27 05:54:00;;;;;;;5.60;3.10;;;;;;;3.45;90.61;100452.88;108552;1259;37167;-74
2022/12/27 05:56:36;;;;;;;8.00;3.50;;;;;;;3.46;90.52;100449.43;108557;1259;36440;-72
2022/12/27 05:59:10;;;;;;;8.10;3.10;;;;;;;3.47;90.67;100454.25;108754;1256;36967;-75
2022/12/27 06:01:44;;;;;;;7.70;2.60;;;;;;;3.42;90.50;100459.28;108591;1265;36970;-75
2022/12/27 06:04:19;;;;;;;8.90;2.20;;;;;;;3.37;90.63;100467.60;108653;1260;36841;-73
2022/12/27 06:06:53;;;;;;;6.30;1.60;;;;;;;3.29;90.27;100473.52;108764;1254;37238;-74
2022/12/27 06:09:28;;;;;;;6.30;1.80;;;;;;;3.20;89.91;100479.08;108574;1265;37607;-77
2022/12/27 06:12:02;;;;;;;5.80;1.80;;;;;;;3.11;90.19;100478.96;108760;1275;37141;-74
2022/12/27 06:14:36;;;;;;;8.70;1.60;;;;;;;3.04;90.00;100487.11;108742;1266;36685;-75
2022/12/27 06:17:12;;;;;;;7.80;2.00;;;;;;;2.95;90.24;100488.02;108756;1275;37297;-74
2022/12/27 06:19:47;;;;;;;6.70;1.60;;;;;;;2.92;90.55;100494.77;108712;1256;37087;-71
2022/12/27 06:22:21;;;;;;;10.50;2.40;;;;;;;2.87;90.43;100499.09;108611;1263;37767;-73
2022/12/27 06:24:59;;;;;;;7.70;2.20;;;;;;;2.85;90.80;100505.64;108736;1256;37257;-73
2022/12/27 06:27:35;;;;;;;9.20;2.20;;;;;;;2.83;90.83;100501.17;108770;1256;37246;-72
2022/12/27 06:30:15;;;;;;;7.10;2.90;;;;;;;2.79;90.83;100501.02;108744;1253;37077;-73
2022/12/27 06:32:50;;;;;;;7.30;2.90;;;;;;;2.75;91.06;100506.38;108788;1256;37280;-75
2022/12/27 06:35:27;;;;;;;5.20;2.60;;;;;;;2.72;91.10;100514.31;108734;1260;36705;-75
2022/12/27 06:38:01;;;;;;;6.90;2.50;;;;;;;2.69;91.09;100518.63;108778;1275;37437;-73
2022/12/27 06:40:36;;;;;;;5.80;1.80;;;;;;;2.69;91.27;100517.08;108763;1264;37156;-75
2022/12/27 06:43:11;;;;;;;5.40;2.10;;;;;;;2.70;91.26;100523.10;108795;1257;37071;-73
2022/12/27 06:45:47;;;;;;;9.20;2.00;;;;;;;2.69;91.28;100525.51;108764;1275;37557;-74
2022/12/27 06:48:21;;;;;;;8.00;2.40;;;;;;;2.68;91.40;100533.95;108581;1263;175064;-73
2022/12/27 06:50:56;;;;;;;5.40;1.50;;;;;;;2.67;91.31;100535.52;108743;1260;37106;-74
2022/12/27 06:53:30;;;;;;;7.30;2.00;;;;;;;2.65;91.06;100536.04;108562;1275;175063;-74
2022/12/27 06:56:12;;;;;;;6.20;1.70;;;;;;;2.64;91.01;100538.27;108744;1256;38449;-74
2022/12/27 06:58:46;;;;;;;7.50;2.00;;;;;;;2.64;91.09;100537.77;108739;1275;37284;-74
2022/12/27 07:01:22;;;;;;;13.60;3.80;;;;;;;2.64;91.14;100542.75;108762;1254;37093;-71
2022/12/27 07:03:58;;;;;;;11.30;2.80;;;;;;;2.62;91.26;100550.17;108751;1275;36146;-71
2022/12/27 07:06:35;;;;;;;8.70;2.00;;;;;;;2.59;90.99;100561.54;108801;1256;37229;-72
2022/12/27 07:09:09;;;;;;;8.00;3.00;;;;;;;2.58;91.13;100564.99;108706;1255;36663;-75
2022/12/27 07:11:44;;;;;;;13.40;2.30;;;;;;;2.61;91.35;100568.08;108736;1275;37179;-74
2022/12/27 07:14:18;;;;;;;8.00;2.20;;;;;;;2.63;91.28;100576.70;108709;1256;39272;-72
2022/12/27 07:16:56;;;;;;;15.50;2.40;;;;;;;2.63;91.33;100576.17;108746;1275;38221;-74
2022/12/27 07:19:33;;;;;;;12.40;2.60;;;;;;;2.62;91.17;100585.82;108725;1267;37110;-74
2022/12/27 07:22:10;;;;;;;10.70;2.50;;;;;;;2.60;91.22;100585.83;108769;1275;36933;-73
2022/12/27 07:24:45;;;;;;;10.00;2.30;;;;;;;2.59;91.26;100591.85;108619;1275;37339;-73
2022/12/27 07:27:19;;;;;;;9.20;2.40;;;;;;;2.61;91.31;100593.92;108739;1275;36071;-74
2022/12/27 07:29:56;;;;;;;10.60;2.90;;;;;;;2.66;91.75;100600.11;108567;1254;36983;-74
2022/12/27 07:32:31;;;;;;;6.80;1.90;;;;;;;2.74;91.97;100599.23;108763;1254;37480;-74
2022/12/27 07:35:12;;;;;;;10.10;2.60;;;;;;;2.83;91.98;100610.23;108793;1256;37080;-73
2022/12/27 07:37:47;;;;;;;6.00;1.90;;;;;;;2.94;92.25;100608.99;108746;1275;36985;-75
2022/12/27 07:40:22;;;;;;;19.50;3.20;;;;;;;3.05;92.31;100616.54;108735;1256;36749;-76
2022/12/27 07:42:56;;;;;;;8.50;2.20;;;;;;;3.14;92.19;100614.95;108763;1256;36249;-75
2022/12/27 07:45:31;;;;;;;10.00;2.50;;;;;;;3.24;92.26;100617.16;108727;1275;36112;-75
2022/12/27 07:48:05;;;;;;;10.80;2.30;;;;;;;3.31;91.85;100616.96;108733;1253;37173;-73
2022/12/27 07:50:45;;;;;;;5.90;2.10;;;;;;;3.36;91.67;100620.90;108621;1253;36945;-73
2022/12/27 07:53:19;;;;;;;6.50;2.10;;;;;;;3.45;91.78;100627.92;108724;1264;37088;-72
2022/12/27 07:55:54;;;;;;;7.30;2.10;;;;;;;3.54;91.62;100632.02;108721;1256;36997;-75
2022/12/27 07:58:29;;;;;;;11.50;2.30;;;;;;;3.62;91.58;100637.67;108711;1256;37222;-75
2022/12/27 08:01:03;;;;;;;12.50;2.20;;;;;;;3.66;91.22;100631.79;108792;1275;37347;-73
2022/12/27 08:03:38;;;;;;;7.50;2.40;;;;;;;3.72;91.23;100637.80;108735;1263;37731;-73
2022/12/27 08:06:23;;;;;;;10.00;2.40;;;;;;;3.77;91.11;100646.21;108717;1275;37718;-71
2022/12/27 08:08:59;;;;;;;8.80;2.60;;;;;;;3.83;91.49;100650.66;108756;1275;37205;-74
2022/12/27 08:11:35;;;;;;;10.60;2.40;;;;;;;3.92;91.42;100659.41;108791;1275;38451;-72
2022/12/27 08:14:10;;;;;;;11.10;3.10;;;;;;;4.01;91.38;100662.81;108573;1259;37322;-73
2022/12/27 08:16:44;;;;;;;10.90;3.10;;;;;;;4.10;91.14;100663.61;108818;1254;37091;-73
2022/12/27 08:19:20;;;;;;;10.60;2.50;;;;;;;4.18;91.12;100667.69;108502;1253;174915;-71
2022/12/27 08:21:54;;;;;;;7.50;2.50;;;;;;;4.24;90.90;100672.84;108782;1256;37045;-73
2022/12/27 08:24:28;;;;;;;7.50;2.50;;;;;;;4.26;90.47;100675.75;108707;1254;37302;-77
2022/12/27 08:27:03;;;;;;;9.10;2.90;;;;;;;4.29;90.37;100681.44;108718;1264;37167;-76
2022/12/27 08:29:37;;;;;;;12.50;3.70;;;;;;;4.31;90.31;100679.00;108745;1275;36921;-75
2022/12/27 08:32:11;;;;;;;10.20;2.80;;;;;;;4.37;90.40;100678.77;108639;1267;176562;-70
2022/12/27 08:34:46;;;;;;;11.90;3.70;;;;;;;4.44;90.49;100683.06;108749;1264;37655;-69
2022/12/27 08:37:20;;;;;;;8.70;3.30;;;;;;;4.49;90.19;100684.23;108757;1275;37165;-72
2022/12/27 08:39:56;;;;;;;7.90;3.10;;;;;;;4.52;89.72;100692.14;108731;1275;37048;-71
2022/12/27 08:42:30;;;;;;;9.30;2.60;;;;;;;4.51;89.40;100693.18;108740;1256;36652;-74
2022/12/27 08:45:05;;;;;;;11.40;3.50;;;;;;;4.49;89.46;100691.13;108764;1256;37085;-74
2022/12/27 08:47:39;;;;;;;11.00;2.70;;;;;;;4.50;89.31;100697.52;108747;1275;37083;-69
2022/12/27 08:50:15;;;;;;;9.20;2.40;;;;;;;4.53;89.50;100703.54;108738;1275;36976;-70
2022/12/27 08:52:49;;;;;;;10.20;3.50;;;;;;;4.58;89.39;100703.50;108805;1254;37341;-74
2022/12/27 08:55:24;;;;;;;9.40;2.30;;;;;;;4.60;89.31;100703.13;108829;1253;37261;-74
2022/12/27 08:58:02;;;;;;;12.70;3.50;;;;;;;4.62;89.22;100709.33;108660;1258;37600;-74
2022/12/27 09:00:37;;;;;;;9.40;3.10;;;;;;;4.63;89.14;100714.17;108753;1264;36948;-75
2022/12/27 09:03:18;;;;;;;10.00;2.40;;;;;;;4.63;88.91;100719.52;108573;1275;36963;-74
2022/12/27 09:05:55;;;;;;;10.20;3.30;;;;;;;4.64;88.93;100721.94;108753;1253;37107;-74
2022/12/27 09:08:30;;;;;;;9.20;3.10;;;;;;;4.63;88.43;100731.63;108744;1267;37279;-72
2022/12/27 09:11:14;;;;;;;12.50;3.90;;;;;;;4.59;88.31;100725.61;108738;1264;36973;-76
2022/12/27 09:13:52;;;;;;;9.40;2.70;;;;;;;4.57;88.42;100728.39;108770;1256;37045;-76
2022/12/27 09:16:29;;;;;;;11.50;2.50;;;;;;;4.55;88.46;100729.95;108704;1267;36964;-70
2022/12/27 09:19:04;;;;;;;9.60;2.60;;;;;;;4.56;88.43;100730.81;108720;1272;36164;-75
2022/12/27 09:21:41;;;;;;;8.10;2.60;;;;;;;4.56;88.31;100731.33;108571;1267;39406;-74
2022/12/27 09:24:21;;;;;;;9.00;3.00;;;;;;;4.55;88.36;100736.17;108741;1275;38360;-74
2022/12/27 09:27:23;;;;;;;8.70;2.50;;;;;;;4.55;88.52;100734.45;108749;1257;37110;-75
2022/12/27 09:30:03;;;;;;;8.50;2.50;;;;;;;4.59;88.91;100726.13;108636;1275;36964;-75
2022/12/27 09:32:37;;;;;;;9.00;2.80;;;;;;;4.67;89.18;100730.73;108825;1275;37027;-72
2022/12/27 09:35:13;;;;;;;9.80;3.00;;;;;;;4.78;88.93;100731.15;108779;1253;37141;-71
2022/12/27 09:37:50;;;;;;;10.10;2.70;;;;;;;4.87;89.06;100730.90;108798;1256;37302;-74
2022/12/27 09:40:25;;;;;;;9.70;3.60;;;;;;;4.96;89.48;100733.92;108759;1254;36541;-71
2022/12/27 09:43:06;;;;;;;8.40;2.60;;;;;;;5.04;89.14;100734.20;108633;1265;36183;-75
2022/12/27 09:45:47;;;;;;;8.50;2.30;;;;;;;5.10;88.73;100733.27;108634;1276;36965;-73
2022/12/27 09:48:25;;;;;;;8.00;2.90;;;;;;;5.14;88.56;100740.84;108590;1259;37788;-71
2022/12/27 09:51:02;;;;;;;8.00;2.80;;;;;;;5.19;88.21;100742.53;108630;1259;35996;-74
2022/12/27 09:53:44;;;;;;;7.70;2.60;;;;;;;5.22;88.01;100743.89;108668;1257;36981;-72
2022/12/27 09:56:25;;;;;;;8.10;2.60;;;;;;;5.23;87.63;100742.84;108542;1259;187027;-73
2022/12/27 09:59:03;;;;;;;11.30;2.90;;;;;;;5.19;87.48;100737.52;108641;1258;37219;-75
2022/12/27 10:01:41;;;;;;;9.70;3.10;;;;;;;5.18;87.34;100743.23;108670;1272;37402;-74
2022/12/27 10:04:17;;;;;;;11.10;3.00;;;;;;;5.17;86.84;100742.20;108576;1259;37548;-73
2022/12/27 10:07:09;;;;;;;10.60;3.00;;;;;;;5.18;87.23;100747.39;108629;1276;36993;-71
2022/12/27 10:09:54;;;;;;;10.60;3.30;;;;;;;5.21;87.11;100754.43;108645;1276;37005;-75
2022/12/27 10:12:46;;;;;;;12.00;3.30;;;;;;;5.24;86.52;100754.23;108642;1276;37319;-73
2022/12/27 10:15:28;;;;;;;11.20;2.70;;;;;;;5.27;87.04;100756.29;108651;1259;37121;-73
2022/12/27 10:18:12;;;;;;;8.70;2.70;;;;;;;5.33;87.15;100759.86;108661;1257;37449;-75
2022/12/27 10:20:58;;;;;;;9.20;3.10;;;;;;;5.39;87.10;100759.27;108639;1266;36499;-73
2022/12/27 10:23:33;;;;;;;11.10;3.50;;;;;;;5.45;86.71;100755.05;108673;1257;36978;-73
2022/12/27 10:26:11;;;;;;;10.60;3.20;;;;;;;5.46;85.87;100752.45;108639;1266;37161;-72
2022/12/27 10:28:47;;;;;;;11.70;3.00;;;;;;;5.45;85.82;100747.09;108640;1259;37536;-70
2022/12/27 10:31:23;;;;;;;11.40;3.00;;;;;;;5.49;85.45;100751.39;108650;1253;36992;-72
2022/12/27 10:33:57;;;;;;;9.80;3.10;;;;;;;5.55;85.82;100750.27;108668;1258;38956;-70
2022/12/27 10:36:32;;;;;;;7.50;2.80;;;;;;;5.58;85.10;100749.55;108622;1253;36953;-74
2022/12/27 10:39:12;;;;;;;10.00;2.70;;;;;;;5.56;85.10;100752.15;108642;1276;35975;-75
2022/12/27 10:41:57;;;;;;;13.30;3.50;;;;;;;5.61;85.29;100749.34;108642;1256;37531;-73
2022/12/27 10:44:32;;;;;;;8.40;3.10;;;;;;;5.67;85.11;100756.20;108662;1276;38263;-72
2022/12/27 10:47:06;;;;;;;8.10;3.00;;;;;;;5.68;84.71;100763.10;108625;1263;36764;-73
2022/12/27 10:49:44;;;;;;;7.80;2.30;;;;;;;5.69;83.98;100757.02;108624;1269;37251;-73
2022/12/27 10:52:22;;;;;;;8.80;2.50;;;;;;;5.74;83.73;100763.73;108710;1271;36999;-73
2022/12/27 10:55:00;;;;;;;9.70;3.00;;;;;;;5.78;83.42;100763.17;108582;1266;176086;-75
2022/12/27 10:57:45;;;;;;;8.00;2.70;;;;;;;5.76;83.10;100758.33;108706;1276;36201;-71
2022/12/27 11:00:24;;;;;;;11.20;3.20;;;;;;;5.74;82.97;100760.96;108677;1276;37230;-73
2022/12/27 11:03:03;;;;;;;8.50;3.20;;;;;;;5.72;83.18;100757.70;108536;1276;174862;-73
2022/12/27 11:05:45;;;;;;;7.60;3.20;;;;;;;5.69;83.25;100749.94;108653;1259;36349;-71
2022/12/27 11:08:28;;;;;;;7.70;3.30;;;;;;;5.68;83.17;100745.79;108713;1270;37328;-72
2022/12/27 11:11:21;;;;;;;6.90;3.10;;;;;;;5.68;83.00;100748.05;108718;1276;36989;-73
2022/12/27 11:13:56;;;;;;;10.00;3.70;;;;;;;5.65;83.14;100745.31;108647;1254;37065;-73
2022/12/27 11:16:32;;;;;;;8.60;3.20;;;;;;;5.66;83.30;100745.13;108640;1276;37082;-76
2022/12/27 11:19:15;;;;;;;10.20;3.30;;;;;;;5.66;83.36;100749.63;108655;1265;36943;-73
2022/12/27 11:21:49;;;;;;;8.80;3.10;;;;;;;5.71;83.35;100751.30;108602;1259;37739;-72
2022/12/27 11:24:24;;;;;;;6.80;3.10;;;;;;;5.75;82.57;100752.29;108114;1259;690695;-74
2022/12/27 11:27:00;;;;;;;6.30;3.00;;;;;;;5.80;82.40;100751.02;108621;1270;36981;-74
2022/12/27 11:29:34;;;;;;;7.10;2.30;;;;;;;5.85;81.97;100753.55;108638;1259;37398;-74
2022/12/27 11:32:10;;;;;;;5.80;3.20;;;;;;;5.87;81.10;100756.13;108656;1265;37350;-76
2022/12/27 11:34:49;;;;;;;7.10;2.40;;;;;;;5.86;80.93;100758.91;108637;1276;36347;-76
2022/12/27 11:37:26;;;;;;;11.00;3.40;;;;;;;5.83;80.34;100764.14;108555;1265;172693;-71
2022/12/27 11:40:21;;;;;;;9.20;2.80;;;;;;;5.80;80.27;100770.94;108651;1261;37172;-69
2022/12/27 11:42:59;;;;;;;8.50;3.00;;;;;;;5.78;79.07;100768.88;108682;1265;37155;-69
2022/12/27 11:45:39;;;;;;;8.40;2.60;;;;;;;5.81;79.70;100783.39;108729;1256;38404;-71
2022/12/27 11:48:24;;;;;;;7.60;2.70;;;;;;;5.87;79.95;100787.99;108734;1256;36057;-70
2022/12/27 11:51:13;;;;;;;7.30;3.10;;;;;;;5.90;79.47;100784.31;108734;1275;37025;-71
2022/12/27 11:54:08;;;;;;;8.20;2.30;;;;;;;5.85;78.70;100791.66;108749;1253;37348;-70
2022/12/27 11:56:44;;;;;;;5.90;2.50;;;;;;;5.77;78.06;100790.36;108777;1275;38248;-70
2022/12/27 11:59:43;;;;;;;7.30;2.60;;;;;;;5.70;78.07;100793.20;108712;1275;38826;-72
2022/12/27 12:02:30;;;;;;;11.10;2.80;;;;;;;5.64;78.34;100798.63;108736;1260;37662;-73
2022/12/27 12:05:45;;;;;;;9.10;2.60;;;;;;;5.62;78.24;100808.86;108785;1253;36296;-71
2022/12/27 12:08:56;;;;;;;7.20;2.40;;;;;;;5.61;78.47;100806.63;108725;1257;36211;-71
2022/12/27 12:11:39;;;;;;;12.60;2.60;;;;;;;5.60;78.35;100811.48;108672;1275;38470;-72
2022/12/27 12:15:07;;;;;;;10.00;3.40;;;;;;;5.59;78.69;100814.95;108700;1259;37449;-71
2022/12/27 12:18:08;;;;;;;8.50;3.10;;;;;;;5.57;78.55;100811.52;108761;1260;37414;-74
2022/12/27 12:21:01;;;;;;;9.10;3.30;;;;;;;5.53;78.25;100819.00;108735;1275;37782;-74
2022/12/27 12:23:58;;;;;;;9.80;4.20;;;;;;;5.47;78.16;100820.27;108730;1275;37005;-74
2022/12/27 12:26:34;;;;;;;7.50;3.40;;;;;;;5.42;78.23;100827.41;108697;1256;37361;-75
2022/12/27 12:29:32;;;;;;;8.20;2.90;;;;;;;5.42;78.12;100828.45;108633;1275;174866;-75
2022/12/27 12:32:30;;;;;;;7.90;3.00;;;;;;;5.37;77.73;100833.52;108738;1256;36079;-70
2022/12/27 12:35:36;;;;;;;7.70;3.10;;;;;;;5.32;77.59;100834.61;108734;1275;37338;-72
2022/12/27 12:38:20;;;;;;;9.50;3.50;;;;;;;5.23;77.50;100835.38;108721;1253;37013;-73
2022/12/27 12:41:36;;;;;;;6.90;2.80;;;;;;;5.17;77.63;100833.52;108754;1275;37126;-72
2022/12/27 12:44:45;;;;;;;9.40;2.90;;;;;;;5.07;77.16;100832.73;108727;1256;37023;-73
2022/12/27 12:47:34;;;;;;;7.70;2.70;;;;;;;4.98;77.62;100836.95;108710;1265;38531;-71
2022/12/27 12:50:24;;;;;;;5.50;2.40;;;;;;;4.95;77.45;100834.73;108722;1275;36373;-73
2022/12/27 12:53:24;;;;;;;6.40;2.60;;;;;;;4.93;77.60;100843.05;108770;1263;38443;-74
2022/12/27 12:56:10;;;;;;;8.00;2.90;;;;;;;4.93;77.82;100848.58;108578;1268;36467;-73
2022/12/27 12:58:56;;;;;;;6.20;3.00;;;;;;;4.90;77.24;100845.48;108744;1256;37545;-73
2022/12/27 13:01:42;;;;;;;6.40;2.80;;;;;;;4.84;77.63;100840.52;108604;1259;37103;-76
2022/12/27 13:04:28;;;;;;;9.10;3.30;;;;;;;4.82;77.85;100843.64;108731;1275;37360;-75
2022/12/27 13:07:30;;;;;;;5.70;2.90;;;;;;;4.80;78.11;100840.89;108731;1275;37161;-72
2022/12/27 13:10:26;;;;;;;6.80;3.00;;;;;;;4.78;78.13;100844.52;108738;1254;36116;-72
2022/12/27 13:13:05;;;;;;;9.50;3.60;;;;;;;4.74;77.88;100841.96;108743;1275;36984;-72
2022/12/27 13:15:50;;;;;;;6.10;3.40;;;;;;;4.72;78.29;100838.17;108771;1275;37103;-72
2022/12/27 13:18:31;;;;;;;14.40;4.20;;;;;;;4.71;78.30;100835.61;108786;1265;37549;-77
2022/12/27 13:21:17;;;;;;;10.70;4.60;;;;;;;4.69;78.65;100838.54;108765;1269;36990;-71
2022/12/27 13:24:07;;;;;;;8.70;3.90;;;;;;;4.66;78.74;100838.05;108897;1256;37007;-72
2022/12/27 13:26:52;;;;;;;8.30;3.60;;;;;;;4.63;78.84;100840.65;108942;1256;37188;-73
2022/12/27 13:29:55;;;;;;;10.00;3.80;;;;;;;4.62;79.05;100845.16;108659;1253;37005;-72
2022/12/27 13:32:52;;;;;;;6.60;3.50;;;;;;;4.61;79.10;100844.82;108783;1254;37003;-71
2022/12/27 13:35:43;;;;;;;9.10;3.80;;;;;;;4.59;79.05;100852.95;108754;1264;38865;-72
2022/12/27 13:38:38;;;;;;;11.60;4.40;;;;;;;4.56;79.17;100868.52;108789;1255;36962;-72
2022/12/27 13:41:29;;;;;;;11.40;5.20;;;;;;;4.51;79.24;100873.38;108741;1256;37092;-74
2022/12/27 13:44:30;;;;;;;11.40;4.40;;;;;;;4.49;79.56;100875.80;108680;1275;37193;-73
2022/12/27 13:47:33;;;;;;;12.20;5.30;;;;;;;4.49;79.64;100878.58;108675;1262;36159;-74
2022/12/27 13:50:58;;;;;;;7.80;3.90;;;;;;;4.46;79.64;100882.56;108746;1275;37077;-72
2022/12/27 13:54:12;;;;;;;9.60;4.40;;;;;;;4.42;80.08;100883.10;108698;1275;37323;-77
2022/12/27 13:56:57;;;;;;;15.60;5.20;;;;;;;4.39;80.17;100883.45;108629;1267;36392;-73
2022/12/27 14:00:03;;;;;;;7.40;3.00;;;;;;;4.38;79.93;100885.70;108772;1256;37215;-76
2022/12/27 14:03:35;;;;;;;12.80;4.70;;;;;;;4.37;80.32;100887.26;108818;1257;37089;-74